Time;durP1;ratioP1;P1;durP2;ratioP2;P2;SDS_P1;SDS_P2;PMS_P1;PMS_P2;Temp;Humidity;BMP_temperature;BMP_pressure;BME280_temperature;BME280_humidity;BME280_pressure;Samples;Min_cycle;Max_cycle;Signal;HPM_P1;HPM_P2
2021/12/22 00:00:13;;;;;;;38.17;23.20;;;-3276.00;93.80;;;;;;5054853;28;20062;-80
2021/12/22 00:02:46;;;;;;;28.65;20.40;;;-3276.00;93.70;;;;;;5071599;28;20195;-80
2021/12/22 00:05:25;;;;;;;37.22;23.70;;;-3276.00;93.70;;;;;;5039448;28;20047;-80
2021/12/22 00:07:52;;;;;;;32.05;20.80;;;-3276.00;93.60;;;;;;5054904;28;20040;-79
2021/12/22 00:10:19;;;;;;;34.53;22.55;;;-3276.00;93.60;;;;;;5071753;28;20036;-79
2021/12/22 00:12:46;;;;;;;35.80;21.25;;;-3276.00;93.40;;;;;;5055052;28;20086;-82
2021/12/22 00:15:12;;;;;;;30.60;20.27;;;-3275.90;93.20;;;;;;5071430;28;20105;-80
2021/12/22 00:17:38;;;;;;;29.92;19.67;;;-3275.90;93.20;;;;;;5054632;28;20128;-79
2021/12/22 00:20:07;;;;;;;35.15;23.42;;;-3275.80;93.00;;;;;;5073947;28;20119;-79
2021/12/22 00:22:32;;;;;;;31.67;19.92;;;-3275.80;93.10;;;;;;5076540;28;20045;-81
2021/12/22 00:24:58;;;;;;;29.65;21.15;;;-3275.70;93.10;;;;;;5043989;28;20039;-80
2021/12/22 00:27:24;;;;;;;34.97;22.95;;;-3275.70;93.00;;;;;;5058844;28;20041;-80
2021/12/22 00:29:52;;;;;;;32.20;21.25;;;-3275.70;92.90;;;;;;5058597;28;20047;-79
2021/12/22 00:32:18;;;;;;;31.30;21.10;;;-3275.70;93.00;;;;;;5061058;28;20123;-79
2021/12/22 00:34:48;;;;;;;33.03;22.85;;;-3275.60;92.90;;;;;;5059029;28;20045;-80
2021/12/22 00:37:16;;;;;;;41.08;28.15;;;-3275.60;92.80;;;;;;5075034;28;20040;-79
2021/12/22 00:39:43;;;;;;;37.25;26.70;;;-3275.60;92.90;;;;;;5075039;28;20127;-81
2021/12/22 00:42:10;;;;;;;36.92;25.27;;;-3275.60;92.90;;;;;;5092118;28;20047;-80
2021/12/22 00:44:36;;;;;;;31.92;21.50;;;-3275.60;92.80;;;;;;5075004;28;20120;-81
2021/12/22 00:47:02;;;;;;;27.73;20.58;;;-3275.60;92.90;;;;;;5058234;28;20075;-81
2021/12/22 00:49:28;;;;;;;31.63;19.63;;;-3275.60;92.90;;;;;;5074880;28;20032;-81
2021/12/22 00:51:54;;;;;;;31.88;20.85;;;-3275.60;92.90;;;;;;5075983;28;20291;-78
2021/12/22 00:54:19;;;;;;;29.80;20.83;;;-3275.50;92.90;;;;;;5075216;28;20140;-78
2021/12/22 00:56:45;;;;;;;28.98;19.50;;;-3275.50;92.80;;;;;;5075073;28;20086;-80
2021/12/22 00:59:11;;;;;;;27.90;19.67;;;-3275.50;92.70;;;;;;5057809;28;20131;-82
2021/12/22 01:01:36;;;;;;;27.50;18.20;;;-3275.40;92.60;;;;;;5058283;28;20043;-79
2021/12/22 01:04:03;;;;;;;30.90;19.90;;;-3275.40;92.70;;;;;;5057991;28;20043;-81
2021/12/22 01:06:28;;;;;;;35.45;21.73;;;-3275.40;92.70;;;;;;5058261;28;20048;-81
2021/12/22 01:08:54;;;;;;;35.00;23.30;;;-3275.40;92.70;;;;;;5074490;28;20048;-80
2021/12/22 01:11:20;;;;;;;30.30;19.73;;;-3275.30;92.60;;;;;;5074482;28;20036;-82
2021/12/22 01:13:45;;;;;;;27.67;18.48;;;-3275.40;92.80;;;;;;5074467;28;20178;-80
2021/12/22 01:16:11;;;;;;;30.88;19.77;;;-3275.40;92.90;;;;;;5074399;28;20193;-80
2021/12/22 01:18:37;;;;;;;26.48;19.55;;;-3275.40;93.00;;;;;;5041035;28;20051;-82
2021/12/22 01:23:48;;;;;;;27.45;18.33;;;-3275.40;93.00;;;;;;5074343;28;20047;-79
2021/12/22 01:26:14;;;;;;;29.58;20.70;;;-3275.50;93.10;;;;;;5057603;28;20102;-78
2021/12/22 01:28:42;;;;;;;31.35;19.92;;;-3275.50;93.20;;;;;;5074077;28;20078;-80
2021/12/22 01:31:13;;;;;;;30.45;21.00;;;-3275.50;93.20;;;;;;5073732;28;20041;-79
2021/12/22 01:33:39;;;;;;;35.60;22.15;;;-3275.50;93.20;;;;;;5058531;28;20433;-81
2021/12/22 01:36:06;;;;;;;32.78;21.15;;;-3275.50;93.30;;;;;;5074038;28;20128;-79
2021/12/22 01:38:31;;;;;;;32.53;20.67;;;-3275.50;93.20;;;;;;5057288;28;20045;-79
2021/12/22 01:40:57;;;;;;;32.15;21.05;;;-3275.40;93.30;;;;;;5057298;28;20395;-79
2021/12/22 01:43:23;;;;;;;26.13;19.52;;;-3275.50;93.30;;;;;;5057270;28;20073;-79
2021/12/22 01:52:03;;;;;;;29.95;19.52;;;-3275.40;93.30;;;;;;5073719;28;20040;-79
2021/12/22 01:54:34;;;;;;;24.63;17.42;;;-3275.40;93.30;;;;;;5057340;28;20468;-79
2021/12/22 01:57:06;;;;;;;27.48;18.38;;;-3275.40;93.30;;;;;;5090761;28;20049;-78
2021/12/22 01:59:32;;;;;;;28.90;19.30;;;-3275.40;93.40;;;;;;5040975;28;20060;-79
2021/12/22 02:01:59;;;;;;;25.75;19.38;;;-3275.30;93.40;;;;;;5056844;28;20041;-79
2021/12/22 02:04:25;;;;;;;30.55;20.67;;;-3275.30;93.40;;;;;;5073795;28;20459;-78
2021/12/22 02:06:51;;;;;;;28.92;20.25;;;-3275.30;93.60;;;;;;5073395;28;20119;-79
2021/12/22 02:09:56;;;;;;;26.98;20.25;;;-3275.30;93.60;;;;;;5040306;28;20053;-78
2021/12/22 02:12:11;;;;;;;26.00;17.60;;;-3275.30;93.50;;;;;;5072757;28;20052;-81
2021/12/22 02:14:40;;;;;;;22.98;17.00;;;-3275.30;93.50;;;;;;5073283;28;20071;-80
2021/12/22 02:17:08;;;;;;;26.52;19.60;;;-3275.30;93.40;;;;;;5073230;28;20080;-79
2021/12/22 02:19:44;;;;;;;27.33;18.60;;;-3275.30;93.30;;;;;;5073117;28;20042;-80
2021/12/22 02:22:14;;;;;;;28.17;17.95;;;-3275.30;93.30;;;;;;5073247;28;20400;-81
2021/12/22 02:24:50;;;;;;;29.35;18.13;;;-3275.30;93.30;;;;;;5073136;28;20041;-79
2021/12/22 02:27:28;;;;;;;25.30;18.17;;;-3275.20;93.30;;;;;;5073082;28;20434;-81
2021/12/22 02:29:59;;;;;;;25.35;17.88;;;-3275.20;93.20;;;;;;5056658;28;20043;-79
2021/12/22 02:35:02;;;;;;;25.02;17.27;;;-3275.10;93.30;;;;;;5073220;28;20395;-79
2021/12/22 02:37:29;;;;;;;23.63;16.50;;;-3275.10;93.30;;;;;;5073054;28;20546;-80
2021/12/22 02:40:09;;;;;;;25.35;16.45;;;-3275.10;93.20;;;;;;5073018;28;20048;-80
2021/12/22 02:42:35;;;;;;;23.73;16.77;;;-3275.10;93.20;;;;;;5055546;28;20051;-80
2021/12/22 02:45:13;;;;;;;26.58;17.85;;;-3275.10;93.10;;;;;;5072764;28;20040;-79
2021/12/22 02:47:39;;;;;;;24.27;18.60;;;-3275.20;93.10;;;;;;5089596;28;20041;-79
2021/12/22 02:50:07;;;;;;;25.35;17.23;;;-3275.10;93.10;;;;;;5072584;28;20067;-78
2021/12/22 02:52:49;;;;;;;20.35;15.32;;;-3275.10;93.10;;;;;;5089483;28;20044;-82
2021/12/22 02:55:15;;;;;;;22.55;16.60;;;-3275.10;93.10;;;;;;5056332;28;20391;-79
2021/12/22 02:57:46;;;;;;;22.15;15.63;;;-3275.10;93.00;;;;;;5089170;28;20040;-81
2021/12/22 03:03:01;;;;;;;24.88;17.45;;;-3275.00;93.10;;;;;;5072678;28;20395;-80
2021/12/22 03:05:28;;;;;;;22.67;16.60;;;-3275.00;93.10;;;;;;5058152;28;20447;-80
2021/12/22 03:07:55;;;;;;;25.15;16.67;;;-3275.00;93.10;;;;;;5056065;28;20080;-81
2021/12/22 03:10:21;;;;;;;25.58;16.40;;;-3274.90;93.00;;;;;;5072192;28;20044;-78
2021/12/22 03:12:52;;;;;;;28.13;17.92;;;-3274.90;93.10;;;;;;5055499;28;20477;-79
2021/12/22 03:15:19;;;;;;;22.35;14.75;;;-3275.00;93.10;;;;;;5055897;28;20396;-79
2021/12/22 03:17:48;;;;;;;24.90;16.15;;;-3275.00;93.00;;;;;;5072034;28;20639;-79
2021/12/22 03:20:15;;;;;;;19.83;14.63;;;-3275.00;93.00;;;;;;5088848;28;20041;-79
2021/12/22 03:22:44;;;;;;;22.17;15.65;;;-3275.00;93.10;;;;;;5055881;28;20131;-79
2021/12/22 03:25:16;;;;;;;27.45;16.60;;;-3275.00;93.00;;;;;;5055424;28;20045;-80
2021/12/22 03:27:50;;;;;;;25.90;17.70;;;-3275.00;93.10;;;;;;5055340;28;20040;-80
2021/12/22 03:30:18;;;;;;;;;;;-3275.00;93.00;;;;;;5055968;28;20055;-79
2021/12/22 03:32:44;;;;;;;26.77;16.90;;;-3275.00;93.10;;;;;;5072195;28;20010;-78
2021/12/22 03:35:16;;;;;;;28.15;18.40;;;-3275.10;93.00;;;;;;5071913;28;20492;-80
2021/12/22 03:37:42;;;;;;;30.30;16.83;;;-3275.00;93.10;;;;;;5056140;28;20225;-79
2021/12/22 03:40:08;;;;;;;25.02;16.52;;;-3275.00;93.20;;;;;;5088634;28;20048;-79
2021/12/22 03:42:34;;;;;;;24.20;15.73;;;-3274.90;93.20;;;;;;5038580;28;20037;-81
2021/12/22 03:45:00;;;;;;;23.50;16.30;;;-3275.00;93.20;;;;;;5055136;28;20378;-81
2021/12/22 03:47:26;;;;;;;24.52;17.00;;;-3275.00;93.10;;;;;;5055153;28;20041;-79
2021/12/22 03:49:52;;;;;;;25.88;15.32;;;-3275.00;93.10;;;;;;5055418;28;20451;-80
2021/12/22 03:52:18;;;;;;;25.13;16.35;;;-3275.00;93.10;;;;;;5071969;28;20396;-80
2021/12/22 03:54:44;;;;;;;24.95;15.57;;;-3275.00;93.10;;;;;;5038296;28;20040;-81
2021/12/22 03:57:09;;;;;;;24.85;17.33;;;-3275.00;93.10;;;;;;5038372;28;20041;-79
2021/12/22 03:59:35;;;;;;;26.88;17.90;;;-3275.00;93.00;;;;;;5071510;28;20052;-82
2021/12/22 04:02:01;;;;;;;25.63;16.55;;;-3275.00;93.00;;;;;;5054952;28;20032;-79
2021/12/22 04:04:27;;;;;;;22.88;16.55;;;-3275.00;93.00;;;;;;5054878;28;20454;-79
2021/12/22 04:06:53;;;;;;;27.10;15.93;;;-3274.90;92.90;;;;;;5088425;28;20057;-79
2021/12/22 04:09:26;;;;;;;26.13;16.73;;;-3274.80;93.00;;;;;;5071441;28;20044;-80
2021/12/22 04:11:52;;;;;;;22.63;14.43;;;-3274.90;93.00;;;;;;5071527;28;20044;-79
2021/12/22 04:14:18;;;;;;;23.38;16.40;;;-3274.80;93.00;;;;;;5071779;28;20388;-81
2021/12/22 04:16:43;;;;;;;25.08;16.65;;;-3274.80;92.80;;;;;;5054817;28;20110;-79
2021/12/22 04:19:09;;;;;;;24.50;16.10;;;-3274.90;92.80;;;;;;5054717;28;20388;-79
2021/12/22 04:21:35;;;;;;;27.75;16.60;;;-3274.90;92.80;;;;;;5054712;28;20480;-80
2021/12/22 04:24:01;;;;;;;37.00;26.27;;;-3274.90;92.80;;;;;;5054716;28;20032;-79
2021/12/22 04:26:30;;;;;;;44.72;28.58;;;-3274.90;92.80;;;;;;5054688;28;20128;-79
2021/12/22 04:28:56;;;;;;;103.35;63.70;;;-3274.80;92.70;;;;;;5071317;28;20052;-80
2021/12/22 04:31:22;;;;;;;85.10;54.30;;;-3274.80;92.80;;;;;;5071391;28;20044;-80
2021/12/22 04:33:48;;;;;;;52.03;35.38;;;-3274.80;92.90;;;;;;5071302;28;20052;-82
2021/12/22 04:36:13;;;;;;;32.67;23.85;;;-3274.70;92.90;;;;;;5071289;28;20045;-80
2021/12/22 04:38:39;;;;;;;22.83;15.90;;;-3274.70;92.90;;;;;;5054476;28;20048;-80
2021/12/22 04:41:05;;;;;;;26.10;17.13;;;-3274.70;93.00;;;;;;5071539;28;20040;-82
2021/12/22 04:43:31;;;;;;;22.48;16.90;;;-3274.70;92.90;;;;;;5054548;28;20041;-79
2021/12/22 04:45:56;;;;;;;24.88;15.57;;;-3274.70;92.70;;;;;;5054551;28;20488;-81
2021/12/22 04:48:22;;;;;;;24.95;16.08;;;-3274.60;92.70;;;;;;5054708;28;20040;-79
2021/12/22 04:50:48;;;;;;;24.75;16.92;;;-3274.60;92.60;;;;;;5054489;28;20400;-82
2021/12/22 04:53:22;;;;;;;25.52;17.05;;;-3274.60;92.70;;;;;;5038197;28;20036;-80
2021/12/22 04:55:48;;;;;;;27.77;18.45;;;-3274.60;92.60;;;;;;5071491;28;20096;-79
2021/12/22 04:58:14;;;;;;;25.90;17.83;;;-3274.50;92.60;;;;;;5054264;28;20454;-81
2021/12/22 05:00:40;;;;;;;30.35;17.15;;;-3274.50;92.70;;;;;;5070960;28;20110;-81
2021/12/22 05:03:06;;;;;;;25.90;17.40;;;-3274.50;92.60;;;;;;5071309;28;20127;-80
2021/12/22 05:05:32;;;;;;;29.77;17.55;;;-3274.40;92.50;;;;;;5055892;28;20547;-81
2021/12/22 05:07:58;;;;;;;27.73;16.77;;;-3274.40;92.60;;;;;;5074602;28;20174;-80
2021/12/22 05:10:26;;;;;;;28.05;17.58;;;-3274.40;92.60;;;;;;5074511;28;20046;-80
2021/12/22 05:12:51;;;;;;;26.33;16.90;;;-3274.40;92.70;;;;;;5058133;28;20431;-80
2021/12/22 05:15:20;;;;;;;28.95;16.38;;;-3274.40;92.60;;;;;;5041453;28;20079;-82
2021/12/22 05:20:15;;;;;;;24.10;15.30;;;-3274.50;92.60;;;;;;5074493;28;20044;-79
2021/12/22 05:22:41;;;;;;;23.60;15.43;;;-3274.40;92.50;;;;;;5057681;28;20075;-80
2021/12/22 05:25:09;;;;;;;20.27;13.95;;;-3274.40;92.60;;;;;;5074550;28;20486;-79
2021/12/22 05:27:35;;;;;;;24.00;14.55;;;-3274.40;92.50;;;;;;5074295;28;20094;-80
2021/12/22 05:30:01;;;;;;;23.98;16.35;;;-3274.40;92.50;;;;;;5074464;28;20472;-79
2021/12/22 05:32:31;;;;;;;26.70;16.85;;;-3274.30;92.50;;;;;;5057688;28;20366;-79
2021/12/22 05:34:58;;;;;;;25.58;15.77;;;-3274.30;92.50;;;;;;5057434;28;20465;-79
2021/12/22 05:37:24;;;;;;;24.67;16.88;;;-3274.30;92.50;;;;;;5074308;28;20044;-80
2021/12/22 05:39:50;;;;;;;28.25;18.63;;;-3274.30;92.50;;;;;;5057548;28;20477;-83
2021/12/22 05:42:16;;;;;;;27.40;17.77;;;-3274.20;92.30;;;;;;5040808;28;20036;-81
2021/12/22 05:44:42;;;;;;;28.75;16.92;;;-3274.20;92.50;;;;;;5074228;28;20040;-81
2021/12/22 05:47:08;;;;;;;26.95;16.85;;;-3274.10;92.40;;;;;;5057282;28;20040;-82
2021/12/22 05:49:34;;;;;;;25.52;17.42;;;-3274.10;92.60;;;;;;5073882;28;20048;-81
2021/12/22 05:52:00;;;;;;;31.35;17.88;;;-3274.10;92.60;;;;;;5073817;28;20614;-82
2021/12/22 05:54:26;;;;;;;26.63;17.95;;;-3274.10;92.60;;;;;;5057109;28;20119;-83
2021/12/22 05:56:51;;;;;;;28.80;17.02;;;-3274.10;92.70;;;;;;5057117;28;20129;-80
2021/12/22 05:59:17;;;;;;;25.38;16.23;;;-3274.10;92.50;;;;;;5040154;28;20056;-82
2021/12/22 06:01:43;;;;;;;27.40;17.25;;;-3274.10;92.70;;;;;;5056870;28;20484;-82
2021/12/22 06:04:08;;;;;;;23.55;17.00;;;-3274.10;92.70;;;;;;5040835;28;20043;-81
2021/12/22 06:06:34;;;;;;;32.28;19.45;;;-3274.10;92.70;;;;;;5056957;28;20510;-83
2021/12/22 06:09:00;;;;;;;28.52;18.83;;;-3274.00;92.70;;;;;;5073506;28;20044;-82
2021/12/22 06:11:25;;;;;;;27.65;17.65;;;-3274.10;92.80;;;;;;5057342;28;20076;-81
2021/12/22 06:13:51;;;;;;;28.55;18.10;;;-3274.00;92.80;;;;;;5040466;28;20037;-80
2021/12/22 06:16:17;;;;;;;29.80;17.40;;;-3274.00;92.80;;;;;;5040088;28;20516;-81
2021/12/22 06:18:44;;;;;;;27.67;17.77;;;-3274.00;92.80;;;;;;5056546;28;20044;-80
2021/12/22 06:21:12;;;;;;;29.95;18.48;;;-3274.00;92.80;;;;;;5073274;28;20484;-81
2021/12/22 06:23:38;;;;;;;25.70;17.05;;;-3274.00;92.70;;;;;;5073203;28;20097;-80
2021/12/22 06:26:04;;;;;;;26.55;18.35;;;-3274.10;92.70;;;;;;5040019;28;20037;-81
2021/12/22 06:28:30;;;;;;;32.92;19.50;;;-3274.00;92.60;;;;;;5073297;28;20040;-82
2021/12/22 06:30:55;;;;;;;31.42;18.63;;;-3274.00;92.60;;;;;;5056379;28;20484;-83
2021/12/22 06:33:21;;;;;;;26.95;17.85;;;-3274.00;92.70;;;;;;5056482;28;20047;-81
2021/12/22 06:35:48;;;;;;;28.02;18.67;;;-3274.00;92.50;;;;;;5073026;28;20041;-82
2021/12/22 06:38:15;;;;;;;29.52;17.52;;;-3273.90;92.70;;;;;;5056217;28;20504;-81
2021/12/22 06:40:41;;;;;;;29.65;17.80;;;-3274.00;92.70;;;;;;5056399;28;20037;-80
2021/12/22 06:43:07;;;;;;;29.52;17.95;;;-3274.00;92.70;;;;;;5056179;28;20037;-82
2021/12/22 06:45:33;;;;;;;29.70;18.20;;;-3273.90;92.60;;;;;;5072781;28;20044;-81
2021/12/22 06:47:58;;;;;;;27.55;18.17;;;-3273.90;92.70;;;;;;5073086;28;20106;-83
2021/12/22 06:50:24;;;;;;;27.67;17.58;;;-3273.90;92.70;;;;;;5072683;28;20564;-80
2021/12/22 06:52:50;;;;;;;25.73;18.85;;;-3274.00;92.70;;;;;;5055964;28;20040;-82
2021/12/22 06:55:16;;;;;;;27.15;17.65;;;-3273.90;92.60;;;;;;5055949;28;20094;-79
2021/12/22 06:57:42;;;;;;;27.05;17.67;;;-3273.90;92.60;;;;;;5055892;28;20045;-81
2021/12/22 07:00:10;;;;;;;33.30;19.20;;;-3273.90;92.60;;;;;;5055505;28;20122;-84
2021/12/22 07:02:38;;;;;;;31.17;18.20;;;-3273.90;92.50;;;;;;5056638;28;20396;-83
2021/12/22 07:05:05;;;;;;;30.75;18.90;;;-3273.90;92.60;;;;;;5072468;28;20037;-81
2021/12/22 07:07:32;;;;;;;32.33;19.67;;;-3273.80;92.60;;;;;;5039685;28;20105;-82
2021/12/22 07:09:57;;;;;;;30.95;18.95;;;-3273.80;92.50;;;;;;5038970;28;20036;-82
2021/12/22 07:12:23;;;;;;;33.50;19.92;;;-3273.80;92.60;;;;;;5055817;28;20067;-82
2021/12/22 07:14:49;;;;;;;29.80;19.60;;;-3273.70;92.50;;;;;;5055802;28;20036;-82
2021/12/22 07:17:15;;;;;;;29.70;18.73;;;-3273.70;92.60;;;;;;5072102;28;20386;-80
2021/12/22 07:19:40;;;;;;;24.45;16.90;;;-3273.80;92.60;;;;;;5072057;28;20036;-80
2021/12/22 07:22:06;;;;;;;26.27;16.30;;;-3273.70;92.60;;;;;;5055561;28;20033;-83
2021/12/22 07:24:33;;;;;;;30.20;18.17;;;-3273.70;92.60;;;;;;5055783;28;20043;-82
2021/12/22 07:26:59;;;;;;;28.55;17.75;;;-3273.70;92.50;;;;;;5072080;28;20052;-83
2021/12/22 07:29:24;;;;;;;29.80;17.92;;;-3273.70;92.60;;;;;;5038502;28;20056;-83
2021/12/22 07:31:50;;;;;;;26.30;16.55;;;-3273.70;92.50;;;;;;5055112;28;20097;-83
2021/12/22 07:34:20;;;;;;;25.33;17.55;;;-3273.70;92.50;;;;;;5038261;28;20058;-81
2021/12/22 07:36:54;;;;;;;29.85;16.95;;;-3273.80;92.50;;;;;;5072036;28;20102;-83
2021/12/22 07:39:19;;;;;;;26.55;17.23;;;-3273.70;92.40;;;;;;5054439;28;20576;-81
2021/12/22 07:41:45;;;;;;;28.17;16.77;;;-3273.70;92.10;;;;;;5054519;28;20123;-84
2021/12/22 07:44:11;;;;;;;27.48;17.15;;;-3273.70;92.30;;;;;;5037704;28;20055;-79
2021/12/22 07:46:37;;;;;;;29.15;18.13;;;-3273.70;92.40;;;;;;5071226;28;20059;-82
2021/12/22 07:49:02;;;;;;;23.75;16.33;;;-3273.70;92.50;;;;;;5070914;28;20048;-79
2021/12/22 07:51:28;;;;;;;27.38;16.98;;;-3273.70;92.50;;;;;;5038074;28;20040;-79
2021/12/22 07:53:54;;;;;;;26.35;15.75;;;-3273.70;92.30;;;;;;5071005;28;20041;-80
2021/12/22 07:56:20;;;;;;;26.42;16.05;;;-3273.70;92.30;;;;;;5071871;28;20048;-80
2021/12/22 07:58:45;;;;;;;26.33;16.73;;;-3273.70;92.40;;;;;;5054970;28;20041;-79
2021/12/22 08:01:11;;;;;;;29.40;16.40;;;-3273.80;92.40;;;;;;5054644;28;20244;-79
2021/12/22 08:03:37;;;;;;;25.58;16.27;;;-3273.80;92.30;;;;;;5071637;28;20063;-82
2021/12/22 08:06:03;;;;;;;28.98;17.75;;;-3273.70;92.30;;;;;;5038194;28;20127;-77
2021/12/22 08:08:28;;;;;;;27.27;16.90;;;-3273.80;92.50;;;;;;5071531;28;20040;-78
2021/12/22 08:10:54;;;;;;;27.45;16.20;;;-3273.80;92.40;;;;;;5054889;28;20113;-80
2021/12/22 08:13:20;;;;;;;28.77;18.48;;;-3273.90;92.50;;;;;;5071447;28;20079;-78
2021/12/22 08:15:46;;;;;;;27.92;17.40;;;-3273.90;92.50;;;;;;5055101;28;20041;-79
2021/12/22 08:18:12;;;;;;;32.28;16.83;;;-3273.90;92.30;;;;;;5071355;28;20475;-82
2021/12/22 08:20:38;;;;;;;26.52;16.35;;;-3273.90;92.40;;;;;;5054593;28;20039;-78
2021/12/22 08:23:04;;;;;;;28.83;17.25;;;-3273.90;92.40;;;;;;5071639;28;20033;-78
2021/12/22 08:25:30;;;;;;;26.88;16.10;;;-3273.90;92.20;;;;;;5071644;28;20127;-81
2021/12/22 08:27:56;;;;;;;31.63;17.83;;;-3273.90;92.30;;;;;;5071206;28;20047;-80
2021/12/22 08:30:21;;;;;;;30.15;18.20;;;-3273.90;92.30;;;;;;5071250;28;20087;-81
2021/12/22 08:32:47;;;;;;;26.75;16.58;;;-3273.90;92.30;;;;;;5037950;28;20052;-79
2021/12/22 08:35:15;;;;;;;40.25;24.13;;;-3273.90;92.50;;;;;;5037900;28;20047;-79
2021/12/22 08:40:26;;;;;;;29.73;18.75;;;-3274.00;92.60;;;;;;5073122;28;20388;-80
2021/12/22 08:42:52;;;;;;;27.58;17.02;;;-3274.00;92.70;;;;;;5058501;28;20036;-80
2021/12/22 08:45:19;;;;;;;31.75;18.45;;;-3274.00;92.60;;;;;;5058465;28;20036;-79
2021/12/22 08:47:46;;;;;;;29.10;17.33;;;-3274.10;92.50;;;;;;5058075;28;20382;-81
2021/12/22 08:50:14;;;;;;;30.00;16.65;;;-3274.10;92.60;;;;;;5058344;28;20048;-82
2021/12/22 08:52:39;;;;;;;28.95;16.73;;;-3274.20;92.50;;;;;;5058339;28;20041;-80
2021/12/22 08:55:06;;;;;;;32.15;18.35;;;-3274.20;92.50;;;;;;5058327;28;20047;-79
2021/12/22 08:57:34;;;;;;;29.33;16.88;;;-3274.30;92.50;;;;;;5057466;28;20105;-80
2021/12/22 09:00:01;;;;;;;29.48;16.65;;;-3274.30;92.50;;;;;;5074329;28;20630;-79
2021/12/22 09:02:27;;;;;;;31.38;16.58;;;-3274.30;92.50;;;;;;5057474;28;20097;-82
2021/12/22 09:04:53;;;;;;;29.88;17.80;;;-3274.30;92.50;;;;;;5058010;28;20040;-80
2021/12/22 09:07:19;;;;;;;28.38;17.88;;;-3274.40;92.60;;;;;;5057299;28;20043;-79
2021/12/22 09:09:44;;;;;;;29.70;16.90;;;-3274.50;92.50;;;;;;5074732;28;20044;-79
2021/12/22 09:12:14;;;;;;;30.52;17.38;;;-3274.50;92.60;;;;;;5057991;28;20374;-81
2021/12/22 09:14:40;;;;;;;27.33;16.83;;;-3274.50;92.50;;;;;;5057922;28;20040;-80
2021/12/22 09:17:11;;;;;;;26.33;17.05;;;-3274.60;92.60;;;;;;5058391;28;20032;-81
2021/12/22 09:19:37;;;;;;;31.50;16.52;;;-3274.60;92.60;;;;;;5074278;28;20045;-81
2021/12/22 09:22:05;;;;;;;29.08;17.25;;;-3274.70;92.50;;;;;;5074637;28;20097;-78
2021/12/22 09:24:31;;;;;;;28.38;16.85;;;-3274.70;92.50;;;;;;5074063;28;20480;-79
2021/12/22 09:26:57;;;;;;;32.28;17.40;;;-3274.70;92.50;;;;;;5057631;28;20047;-80
2021/12/22 09:29:26;;;;;;;28.13;16.63;;;-3274.80;92.40;;;;;;5040867;28;20102;-80
2021/12/22 09:31:52;;;;;;;30.17;18.05;;;-3274.80;92.40;;;;;;5056941;28;20048;-80
2021/12/22 09:34:18;;;;;;;33.38;20.13;;;-3274.80;92.30;;;;;;5072835;28;20127;-79
2021/12/22 09:36:44;;;;;;;36.85;19.83;;;-3274.80;92.40;;;;;;5056149;28;20119;-78
2021/12/22 09:39:09;;;;;;;29.95;17.52;;;-3274.80;92.40;;;;;;5040841;28;20036;-79
2021/12/22 09:41:35;;;;;;;28.17;17.10;;;-3274.90;92.50;;;;;;5057307;28;20382;-81
2021/12/22 09:44:01;;;;;;;28.98;17.77;;;-3274.90;92.60;;;;;;5074843;28;20074;-78
2021/12/22 09:46:30;;;;;;;30.05;19.40;;;-3275.00;92.50;;;;;;5075262;28;20044;-81
2021/12/22 09:49:18;;;;;;;31.55;18.27;;;-3275.00;92.60;;;;;;5053683;28;20036;-78
2021/12/22 09:54:28;;;;;;;29.42;18.48;;;-3275.10;92.60;;;;;;5065963;28;20048;-77
2021/12/22 09:56:57;;;;;;;37.70;21.98;;;-3275.20;92.60;;;;;;5033861;28;20047;-79
2021/12/22 09:59:24;;;;;;;34.65;20.48;;;-3275.30;92.40;;;;;;5034420;28;20060;-80
2021/12/22 10:01:50;;;;;;;27.63;17.20;;;-3275.30;92.50;;;;;;5068382;28;20093;-83
2021/12/22 10:04:16;;;;;;;28.10;18.27;;;-3275.40;92.30;;;;;;5051150;28;20040;-80
2021/12/22 10:06:42;;;;;;;34.67;18.00;;;-3275.40;92.30;;;;;;5050667;28;20041;-79
2021/12/22 10:09:08;;;;;;;34.90;21.15;;;-3275.40;92.30;;;;;;5061442;28;20074;-79
2021/12/22 10:11:41;;;;;;;28.50;19.92;;;-3275.40;92.30;;;;;;5068744;28;20055;-79
2021/12/22 10:14:23;;;;;;;32.45;18.63;;;-3275.40;92.30;;;;;;5051205;28;20044;-79
2021/12/22 10:16:52;;;;;;;29.23;18.23;;;-3275.50;92.30;;;;;;5066999;28;20070;-80
2021/12/22 10:19:19;;;;;;;27.00;17.20;;;-3275.50;92.30;;;;;;5067417;28;20372;-82
2021/12/22 10:21:57;;;;;;;33.60;17.73;;;-3275.60;92.30;;;;;;5051633;28;20366;-80
2021/12/22 10:25:08;;;;;;;28.35;17.25;;;-3275.60;92.30;;;;;;5068046;28;20041;-82
2021/12/22 10:27:34;;;;;;;25.58;16.27;;;-3275.70;92.30;;;;;;5057552;28;20048;-81
2021/12/22 10:30:07;;;;;;;27.65;18.70;;;-3275.70;92.20;;;;;;5089962;28;20044;-80
2021/12/22 10:32:33;;;;;;;28.17;16.90;;;-3275.70;92.10;;;;;;5092218;28;20183;-81
2021/12/22 10:35:01;;;;;;;31.60;17.50;;;-3275.80;92.30;;;;;;5065470;28;20052;-79
2021/12/22 10:37:39;;;;;;;31.77;18.70;;;-3275.80;92.20;;;;;;5067299;28;20059;-80
2021/12/22 10:40:22;;;;;;;26.75;16.50;;;-3275.90;92.20;;;;;;5066746;28;20033;-78
2021/12/22 10:42:49;;;;;;;31.63;18.80;;;-3276.00;92.10;;;;;;5068139;28;20048;-80
2021/12/22 10:45:15;;;;;;;29.13;17.83;;;-3276.00;92.20;;;;;;5037147;28;20366;-78
2021/12/22 10:50:36;;;;;;;31.20;19.10;;;-3276.10;92.20;;;;;;5072895;28;20511;-78
2021/12/22 10:53:03;;;;;;;31.67;17.35;;;-3276.10;91.90;;;;;;5074789;28;20132;-82
2021/12/22 10:55:41;;;;;;;29.25;18.30;;;-3276.10;92.10;;;;;;5072950;28;20123;-80
2021/12/22 10:58:17;;;;;;;27.52;16.58;;;-3276.20;92.00;;;;;;5072838;28;20040;-79
2021/12/22 11:00:43;;;;;;;29.80;17.38;;;-3276.30;91.90;;;;;;5056583;28;20079;-77
2021/12/22 11:03:16;;;;;;;29.70;17.52;;;-3276.30;91.80;;;;;;5050681;28;20392;-78
2021/12/22 11:05:47;;;;;;;34.08;19.70;;;-3276.30;91.60;;;;;;5067870;28;20080;-79
2021/12/22 11:08:21;;;;;;;31.60;18.40;;;-3276.30;91.60;;;;;;5069456;28;20049;-80
2021/12/22 11:10:48;;;;;;;29.83;17.17;;;-3276.40;91.60;;;;;;5053441;28;20036;-79
2021/12/22 11:13:19;;;;;;;26.52;16.27;;;-3276.40;91.50;;;;;;5069984;28;20565;-79
2021/12/22 11:15:45;;;;;;;32.80;17.45;;;-3276.40;91.50;;;;;;5069103;28;20511;-80
2021/12/22 11:18:29;;;;;;;25.77;17.05;;;-3276.40;91.30;;;;;;5037080;28;20037;-78
2021/12/22 11:21:17;;;;;;;27.55;17.17;;;-3276.50;91.20;;;;;;5052896;28;20071;-79
2021/12/22 11:23:44;;;;;;;28.33;17.17;;;-3276.40;90.70;;;;;;5064414;28;20044;-79
2021/12/22 11:26:12;;;;;;;29.77;17.05;;;-3276.50;91.10;;;;;;5061821;28;20060;-77
2021/12/22 11:28:38;;;;;;;28.73;17.40;;;-3276.60;91.20;;;;;;5049673;28;20051;-80
2021/12/22 11:31:06;;;;;;;27.83;17.98;;;-3276.60;91.00;;;;;;5066358;28;20106;-79
2021/12/22 11:33:33;;;;;;;26.20;16.80;;;-3276.60;90.90;;;;;;5049354;28;20048;-82
2021/12/22 11:36:00;;;;;;;32.20;19.23;;;-3276.70;91.10;;;;;;5048660;28;20059;-81
2021/12/22 11:38:26;;;;;;;30.65;18.48;;;0.00;90.90;;;;;;5066076;28;20055;-82
2021/12/22 11:40:56;;;;;;;29.23;17.30;;;0.00;90.90;;;;;;5066076;28;20044;-79
2021/12/22 11:43:29;;;;;;;26.65;16.05;;;0.00;90.90;;;;;;5049950;28;20048;-80
2021/12/22 11:45:56;;;;;;;29.58;18.42;;;0.00;90.90;;;;;;5048292;28;20049;-81
2021/12/22 11:48:22;;;;;;;27.30;16.73;;;0.00;90.60;;;;;;5049179;28;20410;-81
2021/12/22 11:50:48;;;;;;;26.75;17.48;;;0.10;90.80;;;;;;5049439;28;20123;-82
2021/12/22 11:53:15;;;;;;;29.67;16.02;;;0.10;90.50;;;;;;5066284;28;20147;-82
2021/12/22 11:55:50;;;;;;;24.95;16.98;;;0.20;90.00;;;;;;5047751;28;20052;-81
2021/12/22 11:58:20;;;;;;;;;;;0.30;90.50;;;;;;5049563;28;20037;-82
2021/12/22 12:00:50;;;;;;;30.92;18.30;;;0.40;89.70;;;;;;5063916;28;19920;-81
2021/12/22 12:03:36;;;;;;;26.88;17.00;;;0.40;89.20;;;;;;5048800;28;20040;-79
2021/12/22 12:06:15;;;;;;;25.30;15.32;;;0.40;88.60;;;;;;5065085;28;20052;-80
2021/12/22 12:08:57;;;;;;;26.80;17.17;;;0.50;89.20;;;;;;5065818;28;20040;-80
2021/12/22 12:11:32;;;;;;;25.40;17.05;;;0.50;89.40;;;;;;5065745;28;20052;-81
2021/12/22 12:14:06;;;;;;;24.73;16.30;;;0.60;89.60;;;;;;5049995;28;20044;-79
2021/12/22 12:22:42;;;;;;;30.05;16.77;;;0.90;89.30;;;;;;5062178;28;20102;-81
2021/12/22 12:25:10;;;;;;;24.27;17.00;;;0.90;88.80;;;;;;5069405;28;20129;-81
2021/12/22 12:27:53;;;;;;;30.58;18.23;;;0.90;88.00;;;;;;5070183;28;20392;-79
2021/12/22 12:30:45;;;;;;;24.38;16.42;;;0.70;88.10;;;;;;5068901;28;20051;-79
2021/12/22 12:33:23;;;;;;;28.23;17.75;;;0.60;88.10;;;;;;5053704;28;20048;-80
2021/12/22 12:36:04;;;;;;;29.48;17.48;;;0.60;88.70;;;;;;5050624;28;20048;-81
2021/12/22 12:38:42;;;;;;;25.85;16.70;;;0.50;88.30;;;;;;5052939;28;20052;-82